Time;durP1;ratioP1;P1;durP2;ratioP2;P2;SDS_P1;SDS_P2;PMS_P1;PMS_P2;Temp;Humidity;BMP_temperature;BMP_pressure;BME280_temperature;BME280_humidity;BME280_pressure;Samples;Min_cycle;Max_cycle;Signal;HPM_P1;HPM_P2
2022/04/16 00:00:22;;;;;;;7.22;6.55;;;;;;;12.81;49.01;94834.25;5059767;28;20288;-69
2022/04/16 00:02:49;;;;;;;10.02;7.93;;;;;;;12.79;51.49;94836.63;5059580;28;20551;-69
2022/04/16 00:05:16;;;;;;;10.77;8.00;;;;;;;12.57;51.20;94839.06;5059899;28;20233;-70
2022/04/16 00:08:06;;;;;;;8.25;7.35;;;;;;;12.43;50.95;94834.09;5059688;28;20228;-70
2022/04/16 00:10:33;;;;;;;10.43;8.27;;;;;;;12.31;51.54;94828.75;5059445;28;20193;-69
2022/04/16 00:13:00;;;;;;;9.98;8.00;;;;;;;12.26;52.12;94820.75;5059921;28;20200;-69
2022/04/16 00:15:28;;;;;;;7.57;6.80;;;;;;;12.33;51.57;94825.63;5059916;28;20193;-69
2022/04/16 00:17:55;;;;;;;9.10;7.30;;;;;;;12.37;52.02;94824.50;5059333;28;20267;-70
2022/04/16 00:20:24;;;;;;;8.75;7.15;;;;;;;12.44;51.38;94830.16;5059743;28;20196;-70
2022/04/16 00:22:53;;;;;;;8.20;7.03;;;;;;;12.49;52.06;94826.25;5059502;28;20197;-70
2022/04/16 00:25:20;;;;;;;10.57;8.23;;;;;;;12.44;52.18;94832.91;5077406;28;20193;-70
2022/04/16 00:27:49;;;;;;;9.88;8.43;;;;;;;12.44;52.59;94832.91;5076874;28;20651;-70
2022/04/16 00:30:17;;;;;;;11.32;7.72;;;;;;;12.38;51.62;94826.13;5059340;28;20213;-70
2022/04/16 00:32:45;;;;;;;8.68;7.50;;;;;;;12.39;51.19;94826.91;5057516;28;20625;-70
2022/04/16 00:35:13;;;;;;;8.25;7.45;;;;;;;12.35;50.87;94821.31;5058671;28;20193;-70
2022/04/16 00:37:40;;;;;;;9.70;7.47;;;;;;;12.40;52.92;94818.22;5076567;28;20193;-70
2022/04/16 00:40:10;;;;;;;9.18;7.60;;;;;;;12.31;52.29;94826.00;5076992;28;20589;-70
2022/04/16 00:42:40;;;;;;;9.13;7.47;;;;;;;12.20;51.92;94812.00;5076782;28;20227;-70
2022/04/16 00:45:08;;;;;;;8.80;6.65;;;;;;;12.05;52.32;94815.66;5076774;28;20208;-70
2022/04/16 00:47:36;;;;;;;7.95;6.65;;;;;;;11.93;52.61;94813.09;5058773;28;20575;-70
2022/04/16 00:50:03;;;;;;;7.90;6.30;;;;;;;11.79;52.68;94814.38;5076368;28;20223;-70
2022/04/16 00:52:30;;;;;;;10.10;6.97;;;;;;;11.78;53.32;94829.38;5058770;28;20229;-70
2022/04/16 00:54:58;;;;;;;7.82;6.50;;;;;;;11.84;52.18;94816.09;5076411;28;20255;-69
2022/04/16 00:57:27;;;;;;;7.53;6.88;;;;;;;11.93;53.13;94816.63;5076441;28;20189;-69
2022/04/16 00:59:55;;;;;;;8.52;6.82;;;;;;;11.95;52.26;94819.06;5076256;28;20185;-69
2022/04/16 01:02:22;;;;;;;7.82;6.63;;;;;;;11.96;53.03;94813.16;5076278;28;20189;-70
2022/04/16 01:04:49;;;;;;;8.25;7.10;;;;;;;11.93;53.00;94813.09;5058365;28;20260;-70
2022/04/16 01:07:23;;;;;;;7.30;6.60;;;;;;;11.96;53.17;94813.16;5076265;28;20204;-70
2022/04/16 01:09:51;;;;;;;9.35;7.05;;;;;;;11.96;53.70;94812.34;5075604;28;20211;-70
2022/04/16 01:12:18;;;;;;;9.00;7.93;;;;;;;11.85;53.82;94814.13;5058512;28;20197;-70
2022/04/16 01:14:47;;;;;;;10.00;8.00;;;;;;;11.75;53.07;94819.06;5075547;28;20247;-69
2022/04/16 01:17:14;;;;;;;10.15;8.00;;;;;;;11.75;52.98;94818.25;5075871;28;20251;-70
2022/04/16 01:19:43;;;;;;;9.57;8.25;;;;;;;11.76;53.22;94819.84;5067870;28;20272;-70
2022/04/16 01:22:11;;;;;;;8.93;7.03;;;;;;;11.83;53.33;94819.97;5058457;28;20243;-70
2022/04/16 01:24:43;;;;;;;8.68;6.80;;;;;;;11.89;52.35;94812.22;5058183;28;20711;-70
2022/04/16 01:27:10;;;;;;;10.35;7.10;;;;;;;11.84;51.63;94823.56;5058781;28;20197;-70
2022/04/16 01:29:37;;;;;;;7.78;6.43;;;;;;;11.87;51.68;94825.59;5075938;28;20205;-70
2022/04/16 01:32:06;;;;;;;7.53;6.55;;;;;;;11.91;51.15;94821.75;5075791;28;20220;-69
2022/04/16 01:34:33;;;;;;;6.82;6.00;;;;;;;11.96;50.94;94828.94;5058418;28;20201;-69
2022/04/16 01:37:02;;;;;;;5.85;5.30;;;;;;;11.96;50.08;94824.22;5075966;28;20345;-71
2022/04/16 01:39:30;;;;;;;6.43;5.03;;;;;;;11.93;49.17;94827.69;5058597;28;20225;-70
2022/04/16 01:42:00;;;;;;;8.35;5.32;;;;;;;11.91;49.22;94830.03;5058017;28;20212;-70
2022/04/16 01:44:29;;;;;;;6.20;4.88;;;;;;;11.84;49.11;94823.56;5057188;28;20189;-70
2022/04/16 01:46:56;;;;;;;5.68;4.97;;;;;;;11.82;49.61;94829.44;5057982;28;20204;-70
2022/04/16 01:49:26;;;;;;;4.90;4.50;;;;;;;11.78;49.65;94823.84;5075367;28;20201;-70
2022/04/16 01:51:53;;;;;;;5.45;4.85;;;;;;;11.79;49.98;94822.66;5058049;28;20558;-70
2022/04/16 01:54:20;;;;;;;7.38;4.60;;;;;;;11.73;50.41;94820.59;5057976;28;20201;-70
2022/04/16 01:56:47;;;;;;;6.22;5.05;;;;;;;11.72;50.75;94818.97;5057780;28;20193;-70
2022/04/16 01:59:15;;;;;;;7.00;5.60;;;;;;;11.61;51.23;94817.97;5057674;28;20193;-69
2022/04/16 02:01:42;;;;;;;5.97;4.97;;;;;;;11.49;51.55;94816.97;5057884;28;20204;-69
2022/04/16 02:04:09;;;;;;;6.20;4.85;;;;;;;11.44;51.89;94820.06;5075226;28;20220;-69
2022/04/16 02:06:36;;;;;;;6.75;5.10;;;;;;;11.36;51.88;94814.72;5039362;28;20653;-70
2022/04/16 02:09:03;;;;;;;7.50;5.47;;;;;;;11.29;52.52;94818.97;5054633;28;20228;-70
2022/04/16 02:11:31;;;;;;;6.78;5.22;;;;;;;11.28;53.36;94822.06;5055172;28;20198;-70
2022/04/16 02:13:59;;;;;;;6.13;4.80;;;;;;;11.20;53.59;94823.88;5037668;28;20205;-70
2022/04/16 02:16:29;;;;;;;5.45;4.78;;;;;;;11.19;53.68;94830.59;5054817;28;20232;-70
2022/04/16 02:18:55;;;;;;;7.20;5.53;;;;;;;11.04;54.32;94829.47;5037514;28;20201;-70
2022/04/16 02:21:23;;;;;;;9.38;5.70;;;;;;;10.97;53.82;94823.81;5054729;28;20198;-70
2022/04/16 02:23:52;;;;;;;8.20;5.35;;;;;;;10.93;53.90;94822.13;5055015;28;20221;-70
2022/04/16 02:26:20;;;;;;;9.30;5.72;;;;;;;10.89;54.13;94816.50;5054722;28;20259;-70
2022/04/16 02:28:48;;;;;;;6.75;5.53;;;;;;;10.90;54.94;94815.38;5037130;28;20537;-70
2022/04/16 02:31:15;;;;;;;6.47;5.22;;;;;;;10.84;54.49;94816.81;5055102;28;20182;-70
2022/04/16 02:33:44;;;;;;;5.93;5.40;;;;;;;10.88;54.41;94816.88;5037782;28;20236;-70
2022/04/16 02:36:11;;;;;;;5.63;5.13;;;;;;;10.82;55.26;94814.44;5037210;28;20228;-70
2022/04/16 02:38:40;;;;;;;7.47;6.13;;;;;;;10.73;54.63;94816.56;5037162;28;20205;-70
2022/04/16 02:41:08;;;;;;;8.13;5.43;;;;;;;10.63;55.27;94816.31;5054966;28;20501;-70
2022/04/16 02:43:36;;;;;;;8.02;5.90;;;;;;;10.53;55.20;94812.16;5054754;28;20189;-70
2022/04/16 02:48:49;;;;;;;6.18;5.55;;;;;;;10.57;55.38;94811.09;5054371;28;20268;-70
2022/04/16 02:51:16;;;;;;;7.50;5.78;;;;;;;10.60;54.87;94810.38;5054332;28;20628;-70
2022/04/16 02:53:43;;;;;;;9.18;6.15;;;;;;;10.64;55.31;94816.00;5054385;28;20198;-70
2022/04/16 02:56:10;;;;;;;6.75;5.78;;;;;;;10.66;54.92;94810.09;5038665;28;20193;-70
2022/04/16 02:58:38;;;;;;;9.88;5.93;;;;;;;10.65;55.54;94822.28;5040530;28;20212;-70
2022/04/16 03:01:05;;;;;;;8.40;6.10;;;;;;;10.56;55.73;94826.03;5058427;28;20273;-70
2022/04/16 03:03:32;;;;;;;9.65;6.63;;;;;;;10.48;55.92;94837.25;5041023;28;20197;-70
2022/04/16 03:06:00;;;;;;;7.65;5.90;;;;;;;10.42;55.90;94836.75;5070431;28;20233;-70
2022/04/16 03:08:28;;;;;;;9.45;5.88;;;;;;;10.45;56.48;94835.22;5078584;28;20239;-70
2022/04/16 03:10:55;;;;;;;7.60;6.18;;;;;;;10.44;56.23;94828.09;5074375;28;20212;-69
2022/04/16 03:13:23;;;;;;;8.18;5.93;;;;;;;10.44;55.96;94831.66;5080778;28;20197;-70
2022/04/16 03:18:35;;;;;;;8.10;6.18;;;;;;;10.35;56.26;94831.88;5080218;28;20196;-70
2022/04/16 03:21:04;;;;;;;6.82;5.90;;;;;;;10.32;56.18;94826.25;5080289;28;20220;-70
2022/04/16 03:23:31;;;;;;;7.57;5.95;;;;;;;10.21;56.75;94834.25;5080929;28;20188;-70
2022/04/16 03:26:00;;;;;;;8.23;6.43;;;;;;;10.20;56.83;94829.84;5098275;28;20184;-70
2022/04/16 03:28:27;;;;;;;8.50;6.38;;;;;;;10.22;57.09;94827.56;5080478;28;20257;-70
2022/04/16 03:30:54;;;;;;;9.75;6.40;;;;;;;10.27;57.30;94821.78;5097727;28;20200;-70
2022/04/16 03:33:22;;;;;;;10.60;6.55;;;;;;;10.30;57.00;94831.31;5080559;28;20188;-70
2022/04/16 03:35:49;;;;;;;10.52;6.50;;;;;;;10.19;56.50;94844.81;5098075;28;20187;-70
2022/04/16 03:38:19;;;;;;;9.88;7.60;;;;;;;10.11;56.48;94845.78;5080354;28;20230;-70
2022/04/16 03:40:48;;;;;;;7.80;6.72;;;;;;;10.07;56.72;94851.22;5080035;28;20187;-70
2022/04/16 03:43:20;;;;;;;11.55;7.03;;;;;;;10.00;56.95;94864.00;5080537;28;20242;-71
2022/04/16 03:45:47;;;;;;;8.32;6.25;;;;;;;9.91;57.27;94864.16;5097985;28;20188;-70
2022/04/16 03:48:15;;;;;;;11.98;7.22;;;;;;;9.94;57.77;94866.22;5097537;28;20283;-70
2022/04/16 03:50:44;;;;;;;8.57;6.65;;;;;;;9.98;57.88;94878.13;5079851;28;20292;-69
2022/04/16 03:53:11;;;;;;;9.13;6.65;;;;;;;9.89;57.42;94870.03;5079589;28;20228;-69
2022/04/16 04:01:08;;;;;;;11.60;7.38;;;;;;;9.93;57.54;94874.84;5097386;28;20177;-69
2022/04/16 04:03:36;;;;;;;14.48;7.15;;;;;;;9.92;57.91;94881.50;5097413;28;20630;-70
2022/04/16 04:06:04;;;;;;;10.02;6.95;;;;;;;9.92;58.31;94884.25;5079167;28;20240;-70
2022/04/16 04:08:33;;;;;;;10.40;6.78;;;;;;;10.01;57.26;94891.19;5079460;28;20616;-71
2022/04/16 04:11:02;;;;;;;13.73;7.57;;;;;;;10.09;57.83;94895.75;5097414;28;20208;-70
2022/04/16 04:13:29;;;;;;;12.52;7.88;;;;;;;10.13;57.49;94893.91;5097256;28;20494;-70
2022/04/16 04:15:56;;;;;;;12.85;7.70;;;;;;;10.08;57.66;94888.63;5079564;28;20192;-70
2022/04/16 04:18:24;;;;;;;9.40;7.82;;;;;;;9.99;57.10;94904.53;5097056;28;20212;-69
2022/04/16 04:20:51;;;;;;;9.38;8.35;;;;;;;9.94;57.03;94893.75;5096926;28;20210;-70
2022/04/16 04:23:19;;;;;;;10.10;7.75;;;;;;;10.00;57.39;94892.34;5097306;28;20181;-70
2022/04/16 04:25:46;;;;;;;10.52;7.43;;;;;;;10.14;57.86;94889.19;5096805;28;20206;-70
2022/04/16 04:28:14;;;;;;;12.90;8.43;;;;;;;10.13;57.67;94885.63;5096943;28;20189;-70
2022/04/16 04:30:41;;;;;;;13.70;7.80;;;;;;;10.13;57.46;94885.63;5079051;28;20217;-70
2022/04/16 04:33:08;;;;;;;15.88;8.05;;;;;;;10.17;57.50;94893.16;5096707;28;20216;-70
2022/04/16 04:35:35;;;;;;;11.60;8.68;;;;;;;10.23;57.23;94880.72;5079073;28;20200;-70
2022/04/16 04:38:03;;;;;;;11.13;7.50;;;;;;;10.30;55.76;94891.97;5078814;28;20192;-70
2022/04/16 04:40:31;;;;;;;10.38;7.03;;;;;;;10.37;55.89;94900.41;5079116;28;20219;-70
2022/04/16 04:42:58;;;;;;;8.32;5.68;;;;;;;10.41;54.98;94886.72;5096410;28;20185;-69
2022/04/16 04:45:27;;;;;;;9.00;5.85;;;;;;;10.52;54.72;94888.56;5096755;28;20593;-69
2022/04/16 04:47:55;;;;;;;14.23;7.32;;;;;;;10.67;54.00;94895.22;5096526;28;20180;-70
2022/04/16 04:50:22;;;;;;;8.07;5.35;;;;;;;10.79;54.14;94894.34;5079066;28;20297;-69
2022/04/16 04:52:48;;;;;;;9.40;5.35;;;;;;;10.85;53.99;94899.22;5078866;28;20242;-69
2022/04/16 04:55:15;;;;;;;10.25;5.40;;;;;;;10.95;53.39;94903.38;5096260;28;20639;-70
2022/04/16 04:57:43;;;;;;;11.70;7.00;;;;;;;11.03;54.29;94898.81;5078383;28;20218;-70
2022/04/16 05:00:12;;;;;;;8.82;5.97;;;;;;;11.06;54.01;94900.88;5078925;28;20200;-70
2022/04/16 05:02:41;;;;;;;9.43;6.70;;;;;;;11.07;54.87;94908.81;5095760;28;20212;-70
2022/04/16 05:05:09;;;;;;;9.25;7.05;;;;;;;11.08;54.29;94901.31;5095920;28;20232;-70
2022/04/16 05:07:36;;;;;;;7.65;6.30;;;;;;;11.08;54.12;94899.34;5096260;28;20570;-70
2022/04/16 05:10:04;;;;;;;12.40;6.20;;;;;;;11.12;53.34;94906.91;5078321;28;20285;-70
2022/04/16 05:12:31;;;;;;;12.00;6.60;;;;;;;11.16;54.00;94910.56;5095854;28;20258;-70
2022/04/16 05:14:58;;;;;;;9.15;6.53;;;;;;;11.19;53.91;94907.88;5078345;28;20201;-70
2022/04/16 05:17:25;;;;;;;8.65;6.35;;;;;;;11.25;54.38;94900.91;5078120;28;20254;-70
2022/04/16 05:19:53;;;;;;;10.65;6.30;;;;;;;11.31;54.10;94893.94;5095561;28;20176;-70
2022/04/16 05:22:20;;;;;;;9.60;6.10;;;;;;;11.31;53.84;94893.94;5096168;28;20181;-70
2022/04/16 05:24:48;;;;;;;10.27;6.25;;;;;;;11.39;53.45;94889.34;5078039;28;20192;-70
2022/04/16 05:27:15;;;;;;;9.80;6.00;;;;;;;11.48;52.53;94895.47;5078352;28;20207;-70
2022/04/16 05:30:06;;;;;;;10.07;6.00;;;;;;;11.56;53.63;94890.91;5061340;28;20212;-70
2022/04/16 05:32:36;;;;;;;9.57;6.70;;;;;;;11.67;53.37;94883.63;5095801;28;20185;-70
2022/04/16 05:35:07;;;;;;;11.73;6.15;;;;;;;11.79;52.99;94880.69;5095899;28;20185;-70
2022/04/16 05:37:36;;;;;;;6.97;5.63;;;;;;;11.95;49.42;94885.38;5095901;28;20190;-70
2022/04/16 05:40:06;;;;;;;7.45;4.90;;;;;;;12.12;46.43;94889.63;5077769;28;20354;-70
2022/04/16 05:42:39;;;;;;;5.28;4.30;;;;;;;12.22;44.35;94891.78;5095422;28;20271;-70
2022/04/16 05:45:07;;;;;;;5.10;4.30;;;;;;;12.32;43.07;94895.94;5095818;28;20184;-70
2022/04/16 05:47:35;;;;;;;5.15;4.65;;;;;;;12.40;43.08;94895.66;5077849;28;20261;-70
2022/04/16 05:50:01;;;;;;;6.13;4.30;;;;;;;12.48;42.03;94893.81;5077484;28;20228;-70
2022/04/16 05:52:30;;;;;;;5.75;4.93;;;;;;;12.53;42.07;94885.22;5095244;28;20188;-70
2022/04/16 05:54:56;;;;;;;5.40;4.43;;;;;;;12.58;42.57;94887.69;5077644;28;20192;-70
2022/04/16 05:57:25;;;;;;;7.47;5.63;;;;;;;12.64;42.74;94885.41;5078071;28;20210;-70
2022/04/16 05:59:52;;;;;;;5.60;4.60;;;;;;;12.71;42.67;94883.56;5077712;28;20253;-70
2022/04/16 06:02:20;;;;;;;6.97;5.05;;;;;;;12.77;42.22;94876.50;5095513;28;20228;-70
2022/04/16 06:04:47;;;;;;;5.40;4.57;;;;;;;12.83;42.96;94878.97;5077439;28;20210;-69
2022/04/16 06:07:15;;;;;;;5.88;4.57;;;;;;;12.87;42.44;94875.09;5077549;28;20218;-70
2022/04/16 06:09:44;;;;;;;6.70;4.88;;;;;;;12.95;43.00;94881.53;5095476;28;20185;-70
2022/04/16 06:12:11;;;;;;;7.53;5.03;;;;;;;13.01;42.68;94880.06;5077546;28;20240;-70
2022/04/16 06:14:39;;;;;;;6.20;4.50;;;;;;;13.08;42.66;94884.91;5077072;28;20238;-70
2022/04/16 06:17:07;;;;;;;6.63;4.70;;;;;;;13.13;42.75;94877.06;5077455;28;20210;-70
2022/04/16 06:19:35;;;;;;;5.85;4.85;;;;;;;13.20;42.48;94884.66;5077533;28;20200;-70
2022/04/16 06:22:04;;;;;;;5.30;4.75;;;;;;;13.27;42.12;94886.78;5095387;28;20188;-70
2022/04/16 06:24:33;;;;;;;6.60;4.18;;;;;;;13.32;42.04;94886.44;5094680;28;20216;-70
2022/04/16 06:27:03;;;;;;;5.25;4.57;;;;;;;13.37;41.30;94881.38;5077195;28;20605;-70
2022/04/16 06:29:29;;;;;;;6.28;5.07;;;;;;;13.43;40.94;94881.84;5095647;28;20631;-70
2022/04/16 06:31:57;;;;;;;7.75;6.20;;;;;;;13.47;39.74;94882.69;5081720;28;20648;-70
2022/04/16 06:34:27;;;;;;;7.10;4.72;;;;;;;13.52;39.76;94879.59;5099110;28;20212;-70
2022/04/16 06:36:54;;;;;;;5.88;4.68;;;;;;;13.56;39.72;94874.88;5081213;28;20488;-70
2022/04/16 06:39:21;;;;;;;6.05;5.20;;;;;;;13.63;39.41;94879.72;5081568;28;20188;-70
2022/04/16 06:41:48;;;;;;;6.15;5.28;;;;;;;13.72;39.81;94880.22;5081418;28;20586;-70
2022/04/16 06:44:17;;;;;;;6.53;5.75;;;;;;;13.81;40.26;94874.41;5099129;28;20188;-70
2022/04/16 06:46:46;;;;;;;6.68;4.75;;;;;;;13.89;39.34;94870.53;5080900;28;20224;-70
2022/04/16 06:49:13;;;;;;;6.85;5.45;;;;;;;13.94;39.52;94872.94;5098730;28;20516;-69
2022/04/16 06:51:40;;;;;;;7.32;5.63;;;;;;;13.97;39.19;94873.00;5081368;28;20304;-69
2022/04/16 06:54:07;;;;;;;6.60;5.78;;;;;;;14.02;40.74;94882.97;5099242;28;20223;-69
2022/04/16 06:56:34;;;;;;;10.02;6.55;;;;;;;14.07;40.97;94870.72;5080965;28;20257;-69
2022/04/16 06:59:01;;;;;;;11.52;5.88;;;;;;;14.06;40.56;94878.25;5098670;28;20177;-69
2022/04/16 07:01:30;;;;;;;6.70;5.78;;;;;;;14.11;39.96;94871.56;5098468;28;20188;-69
2022/04/16 07:03:57;;;;;;;7.95;5.60;;;;;;;14.14;39.46;94868.81;5081360;28;20184;-69
2022/04/16 07:06:24;;;;;;;6.95;5.40;;;;;;;14.17;39.62;94875.59;5098350;28;20297;-70
2022/04/16 07:08:52;;;;;;;6.63;5.63;;;;;;;14.23;39.63;94879.59;5098673;28;20265;-69
2022/04/16 07:11:19;;;;;;;7.80;5.80;;;;;;;14.29;39.54;94871.75;5098891;28;20216;-69
2022/04/16 07:13:46;;;;;;;6.53;5.82;;;;;;;14.37;39.60;94871.41;5064265;28;20247;-69
2022/04/16 07:16:13;;;;;;;8.95;6.25;;;;;;;14.44;39.84;94865.13;5080822;28;20239;-69
2022/04/16 07:18:41;;;;;;;7.30;6.32;;;;;;;14.52;39.71;94868.81;5080618;28;20205;-70
2022/04/16 07:21:08;;;;;;;7.07;6.32;;;;;;;14.53;39.39;94871.22;5080799;28;20196;-69
2022/04/16 07:23:35;;;;;;;7.47;6.50;;;;;;;14.55;39.15;94866.06;5098508;28;20184;-70
2022/04/16 07:26:03;;;;;;;10.07;5.70;;;;;;;14.56;39.44;94861.31;5080654;28;20231;-69
2022/04/16 07:28:30;;;;;;;7.53;6.10;;;;;;;14.59;39.53;94866.88;5098292;28;20620;-70
2022/04/16 07:31:00;;;;;;;10.90;6.65;;;;;;;14.65;39.90;94870.13;5080310;28;20303;-69
2022/04/16 07:33:29;;;;;;;7.30;5.70;;;;;;;14.67;39.92;94860.22;5080400;28;20295;-69
2022/04/16 07:35:57;;;;;;;8.77;6.00;;;;;;;14.71;39.41;94854.72;5080752;28;20236;-69
2022/04/16 07:38:24;;;;;;;6.47;5.57;;;;;;;14.73;39.45;94862.63;5098006;28;20280;-69
2022/04/16 07:40:54;;;;;;;7.60;5.63;;;;;;;14.72;39.55;94859.06;5080369;28;20634;-69
2022/04/16 07:43:21;;;;;;;9.05;5.75;;;;;;;14.76;39.77;94865.44;5080183;28;20206;-69
2022/04/16 07:45:49;;;;;;;9.25;5.80;;;;;;;14.77;39.86;94857.91;5098075;28;20196;-69
2022/04/16 07:48:16;;;;;;;7.97;5.55;;;;;;;14.78;39.69;94854.75;5080288;28;20204;-69
2022/04/16 07:50:43;;;;;;;7.55;5.60;;;;;;;14.85;40.50;94854.81;5080037;28;20697;-69
2022/04/16 07:53:11;;;;;;;7.28;5.72;;;;;;;14.91;39.79;94861.59;5097595;28;20184;-68
2022/04/16 07:55:38;;;;;;;6.75;5.30;;;;;;;14.94;40.17;94857.25;5079815;28;20216;-69
2022/04/16 07:58:07;;;;;;;6.68;5.53;;;;;;;15.00;39.96;94846.59;5098027;28;20184;-69
2022/04/16 08:00:35;;;;;;;8.25;5.68;;;;;;;15.06;40.10;94853.34;5097691;28;20181;-69
2022/04/16 08:03:03;;;;;;;8.32;6.38;;;;;;;15.11;39.68;94853.00;5098051;28;20247;-69
2022/04/16 08:05:30;;;;;;;6.47;5.18;;;;;;;15.19;40.98;94842.72;5097413;28;20236;-68
2022/04/16 08:07:57;;;;;;;7.40;5.47;;;;;;;15.28;40.25;94835.63;5080092;28;20202;-69
2022/04/16 08:10:25;;;;;;;7.72;5.40;;;;;;;15.29;40.08;94847.56;5097732;28;20200;-69
2022/04/16 08:12:52;;;;;;;6.30;5.70;;;;;;;15.32;39.63;94833.69;5097305;28;20204;-68
2022/04/16 08:15:19;;;;;;;7.40;5.82;;;;;;;15.35;39.40;94830.09;5097604;28;20596;-69
2022/04/16 08:17:46;;;;;;;7.22;5.07;;;;;;;15.45;39.84;94836.13;5079795;28;20212;-69
2022/04/16 08:20:13;;;;;;;8.45;5.30;;;;;;;15.55;39.46;94827.03;5063072;28;20192;-68
2022/04/16 08:22:46;;;;;;;7.32;5.28;;;;;;;15.65;39.00;94820.72;5079526;28;20228;-68
2022/04/16 08:27:59;;;;;;;8.95;5.18;;;;;;;15.88;39.95;94817.66;5079565;28;20199;-69
2022/04/16 08:30:27;;;;;;;6.90;5.57;;;;;;;15.95;38.60;94806.53;5097092;28;20197;-68
2022/04/16 08:32:55;;;;;;;6.20;4.97;;;;;;;16.09;39.84;94803.00;5079123;28;20240;-69
2022/04/16 08:35:23;;;;;;;6.40;5.38;;;;;;;16.24;38.05;94804.59;5096995;28;20208;-69
2022/04/16 08:37:50;;;;;;;8.23;5.00;;;;;;;16.32;37.98;94800.63;5079469;28;20212;-69
2022/04/16 08:40:19;;;;;;;8.60;4.97;;;;;;;16.48;39.11;94802.22;5097124;28;20184;-69
2022/04/16 08:42:48;;;;;;;5.43;4.93;;;;;;;16.66;38.15;94799.44;5096737;28;20189;-68
2022/04/16 08:45:17;;;;;;;5.78;5.20;;;;;;;16.78;38.42;94785.16;5096384;28;20180;-69
2022/04/16 08:47:44;;;;;;;6.32;5.70;;;;;;;16.88;37.09;94784.31;5096745;28;20214;-68
2022/04/16 08:50:14;;;;;;;6.78;4.70;;;;;;;17.00;39.53;94788.69;5096625;28;20245;-69
2022/04/16 08:52:41;;;;;;;5.78;5.25;;;;;;;17.12;36.89;94785.47;5096105;28;20232;-69
2022/04/16 08:55:11;;;;;;;5.57;4.70;;;;;;;17.28;37.58;94779.44;5095664;28;20198;-69
2022/04/16 08:57:41;;;;;;;5.53;4.95;;;;;;;17.42;35.33;94773.03;5078763;28;20191;-69
2022/04/16 09:00:11;;;;;;;5.90;4.85;;;;;;;17.52;36.07;94763.84;5096279;28;20181;-69
2022/04/16 09:02:50;;;;;;;7.47;4.93;;;;;;;17.66;34.75;94765.78;5096453;28;20200;-69
2022/04/16 09:05:19;;;;;;;6.65;4.50;;;;;;;17.75;35.45;94760.53;5096051;28;20236;-69
2022/04/16 09:07:46;;;;;;;5.22;4.47;;;;;;;17.83;35.04;94753.75;5095958;28;20596;-69
2022/04/16 09:10:14;;;;;;;7.20;4.80;;;;;;;17.89;35.11;94762.47;5096040;28;20670;-69
2022/04/16 09:12:41;;;;;;;5.88;4.53;;;;;;;17.98;35.50;94762.84;5078041;28;20247;-69
2022/04/16 09:15:11;;;;;;;7.28;4.82;;;;;;;18.00;35.02;94752.84;5078295;28;20723;-69
2022/04/16 09:17:44;;;;;;;4.90;4.35;;;;;;;18.02;35.91;94758.03;5096139;28;20184;-69
2022/04/16 09:20:14;;;;;;;6.35;4.43;;;;;;;18.11;34.26;94749.19;5096003;28;20241;-69
2022/04/16 09:22:48;;;;;;;6.10;4.30;;;;;;;18.15;35.52;94745.16;5078327;28;20214;-69
2022/04/16 09:25:16;;;;;;;5.13;4.63;;;;;;;18.27;35.92;94749.47;5078186;28;20195;-69
2022/04/16 09:31:07;;;;;;;4.82;4.00;;;;;;;18.45;35.90;94740.97;5078005;28;20188;-68
2022/04/16 09:40:10;;;;;;;6.30;4.53;;;;;;;18.65;34.93;94733.59;5095621;28;20176;-69
2022/04/16 09:58:30;;;;;;;5.13;4.32;;;;;;;18.96;36.00;94728.16;5095292;28;20202;-69
2022/04/16 10:00:57;;;;;;;5.07;4.57;;;;;;;19.08;34.01;94724.81;5095479;28;20184;-69
2022/04/16 10:03:25;;;;;;;4.57;3.85;;;;;;;19.13;33.39;94715.97;5077790;28;20196;-70
2022/04/16 10:06:10;;;;;;;5.07;4.57;;;;;;;19.09;33.83;94726.38;5094214;28;20267;-69
2022/04/16 10:15:59;;;;;;;5.55;4.35;;;;;;;19.13;34.72;94710.38;5077197;28;20619;-69
2022/04/16 10:18:49;;;;;;;5.27;4.57;;;;;;;19.08;34.86;94712.84;5094164;28;20511;-69
2022/04/16 10:30:56;;;;;;;5.05;4.55;;;;;;;18.94;34.56;94703.41;5095125;28;20173;-69
2022/04/16 10:33:43;;;;;;;4.88;4.47;;;;;;;18.84;32.78;94703.50;5094984;28;20200;-68
2022/04/16 10:36:32;;;;;;;5.50;4.47;;;;;;;18.91;33.70;94700.63;5077393;28;20208;-69
2022/04/16 10:42:46;;;;;;;6.15;4.68;;;;;;;18.91;33.57;94690.25;5077048;28;20187;-69
2022/04/16 10:45:14;;;;;;;6.15;4.70;;;;;;;18.96;34.39;94689.03;5077039;28;20913;-69
2022/04/16 10:48:00;;;;;;;4.90;4.38;;;;;;;19.01;34.64;94688.56;5077439;28;20215;-69
2022/04/16 11:02:41;;;;;;;7.43;4.25;;;;;;;19.69;32.16;94674.53;5094535;28;20198;-69
2022/04/16 11:09:08;;;;;;;4.82;4.43;;;;;;;19.74;33.03;94673.25;5074205;28;20228;-69
2022/04/16 11:12:19;;;;;;;5.95;4.80;;;;;;;19.62;32.71;94680.22;5094470;28;20235;-68
2022/04/16 12:41:25;;;;;;;4.15;3.63;;;;;;;21.20;32.25;94583.03;5055648;28;20185;-68
2022/04/16 12:44:11;;;;;;;5.07;4.32;;;;;;;21.24;33.31;94580.16;5039273;28;20197;-69
2022/04/16 12:46:56;;;;;;;4.35;3.88;;;;;;;21.31;31.97;94588.41;5039111;28;20198;-69
2022/04/16 12:49:42;;;;;;;4.47;3.85;;;;;;;21.26;30.83;94580.53;5056379;28;20182;-69
2022/04/16 16:29:01;;;;;;;5.55;5.05;;;;;;;17.93;39.85;94595.84;5075691;28;20197;-69
2022/04/16 16:31:29;;;;;;;6.25;5.63;;;;;;;17.88;40.34;94594.31;5076062;28;20701;-69
2022/04/16 17:07:28;;;;;;;5.80;5.30;;;;;;;17.24;41.41;94644.91;5075094;28;20295;-70
2022/04/16 17:20:15;;;;;;;5.47;4.97;;;;;;;16.86;41.68;94661.38;5094953;28;20300;-69
2022/04/16 17:23:00;;;;;;;7.28;5.30;;;;;;;16.79;41.88;94665.00;5055716;28;20247;-68
2022/04/16 17:25:46;;;;;;;5.90;5.40;;;;;;;16.73;42.02;94668.56;5054738;28;20247;-69
2022/04/16 17:34:18;;;;;;;6.00;5.50;;;;;;;16.40;42.43;94683.75;5054841;28;20217;-68
2022/04/16 17:37:05;;;;;;;6.45;5.88;;;;;;;16.24;42.98;94681.38;5054750;28;20243;-69
2022/04/16 17:40:09;;;;;;;6.50;5.90;;;;;;;16.15;42.94;94686.53;5054833;28;20194;-69
2022/04/16 17:55:29;;;;;;;5.68;5.18;;;;;;;15.87;43.76;94711.19;5054175;28;20193;-69
2022/04/16 18:01:18;;;;;;;5.78;5.32;;;;;;;15.76;44.00;94713.16;5055298;28;20201;-69
2022/04/16 18:09:34;;;;;;;5.43;4.93;;;;;;;15.67;44.72;94728.63;5055280;28;20174;-69
2022/04/16 18:23:21;;;;;;;5.80;5.40;;;;;;;15.42;44.79;94754.31;5077390;28;20188;-68
2022/04/16 18:29:09;;;;;;;6.63;6.13;;;;;;;15.26;45.35;94762.22;5099341;28;20204;-68
2022/04/16 18:37:42;;;;;;;8.07;7.28;;;;;;;15.23;45.96;94763.78;5082102;28;20587;-69
2022/04/16 18:55:33;;;;;;;9.13;8.32;;;;;;;15.04;45.91;94783.53;5098843;28;20176;-68
2022/04/16 19:08:07;;;;;;;11.23;10.32;;;;;;;14.83;46.00;94764.75;5080727;28;20267;-68
2022/04/16 19:31:06;;;;;;;8.75;8.07;;;;;;;14.45;47.17;94777.94;5076202;28;20323;-69
2022/04/16 19:33:33;;;;;;;9.13;8.43;;;;;;;14.47;46.84;94764.47;5094726;28;20242;-69
2022/04/16 19:36:00;;;;;;;9.70;8.82;;;;;;;14.46;46.75;94774.00;5098451;28;20185;-69
2022/04/16 19:38:28;;;;;;;8.93;8.23;;;;;;;14.41;46.55;94766.00;5097519;28;20216;-68
2022/04/16 19:40:54;;;;;;;9.02;8.23;;;;;;;14.35;46.55;94760.03;5080439;28;20288;-68
2022/04/16 20:00:13;;;;;;;8.32;7.63;;;;;;;14.02;46.71;94788.69;5097833;28;20165;-69
2022/04/16 20:02:39;;;;;;;8.07;7.47;;;;;;;14.00;47.10;94788.25;5097334;28;20444;-68
2022/04/16 20:05:07;;;;;;;7.20;6.70;;;;;;;13.99;46.84;94780.34;5097395;28;20208;-70
2022/04/16 20:17:41;;;;;;;6.80;6.22;;;;;;;13.93;46.73;94786.22;5079893;28;20185;-70
2022/04/16 20:20:10;;;;;;;7.20;6.60;;;;;;;13.96;46.78;94776.34;5097091;28;20645;-70
2022/04/16 20:45:18;;;;;;;5.75;5.35;;;;;;;13.78;47.33;94770.63;5089573;28;20609;-70
2022/04/16 20:47:42;;;;;;;5.70;5.30;;;;;;;13.69;47.13;94773.72;5096414;28;20196;-70
2022/04/16 20:50:09;;;;;;;5.63;5.10;;;;;;;13.69;47.31;94775.69;5078863;28;20203;-70
2022/04/16 20:55:22;;;;;;;5.63;5.22;;;;;;;13.70;46.85;94777.28;5096317;28;20199;-69
2022/04/16 20:57:49;;;;;;;5.30;4.75;;;;;;;13.68;46.99;94780.41;5096546;28;20187;-70
2022/04/16 21:00:17;;;;;;;5.43;5.03;;;;;;;13.63;47.01;94774.44;5078872;28;20192;-71
2022/04/16 21:02:43;;;;;;;5.88;5.38;;;;;;;13.64;47.25;94779.56;5078381;28;20235;-70
2022/04/16 21:05:10;;;;;;;5.70;5.20;;;;;;;13.61;47.15;94787.84;5079006;28;20203;-70
2022/04/16 21:07:37;;;;;;;5.45;4.90;;;;;;;13.60;47.14;94783.50;5078817;28;20195;-70
2022/04/16 21:10:05;;;;;;;5.90;5.40;;;;;;;13.53;47.26;94781.44;5078387;28;20190;-69